createdAt,value
2022-08-12T00:02:36.704Z,24.98
2022-08-12T00:05:26.951Z,24.92
2022-08-12T00:08:17.343Z,24.82
2022-08-12T00:11:12.292Z,24.73
2022-08-12T00:14:00.281Z,24.69
2022-08-12T00:16:50.400Z,24.68
2022-08-12T00:19:40.322Z,24.70
2022-08-12T00:22:30.409Z,24.69
2022-08-12T00:25:21.242Z,24.70
2022-08-12T00:28:12.917Z,24.70
2022-08-12T00:31:02.506Z,24.71
2022-08-12T00:33:52.890Z,24.68
2022-08-12T00:36:46.537Z,24.65
2022-08-12T00:39:38.512Z,24.59
2022-08-12T00:42:12.892Z,24.48
2022-08-12T00:44:48.298Z,24.36
2022-08-12T00:47:25.699Z,24.28
2022-08-12T00:49:53.847Z,24.25
2022-08-12T00:52:25.892Z,24.23
2022-08-12T00:54:59.994Z,24.22
2022-08-12T00:57:36.069Z,24.20
2022-08-12T01:00:16.297Z,24.20
2022-08-12T01:02:52.460Z,24.17
2022-08-12T01:05:43.820Z,24.13
2022-08-12T01:08:33.528Z,24.09
2022-08-12T01:11:23.178Z,24.02
2022-08-12T01:13:55.157Z,23.96
2022-08-12T01:16:27.063Z,23.91
2022-08-12T01:18:59.138Z,23.89
2022-08-12T01:22:05.843Z,23.84
2022-08-12T01:24:47.627Z,23.78
2022-08-12T01:27:20.192Z,23.65
2022-08-12T01:29:54.093Z,23.56
2022-08-12T01:32:27.703Z,23.51
2022-08-12T01:35:03.479Z,23.48
2022-08-12T01:37:38.608Z,23.44
2022-08-12T01:40:32.028Z,23.39
2022-08-12T01:42:49.419Z,23.34
2022-08-12T01:45:25.083Z,23.29
2022-08-12T01:48:33.772Z,23.23
2022-08-12T01:52:21.550Z,23.24
2022-08-12T01:54:07.319Z,23.23
2022-08-12T01:56:55.020Z,23.28
2022-08-12T01:59:49.735Z,23.31
2022-08-12T02:02:30.466Z,23.37
2022-08-12T02:05:39.902Z,23.45
2022-08-12T02:09:06.277Z,23.51
2022-08-12T02:11:44.510Z,23.58
2022-08-12T02:14:34.387Z,23.63
2022-08-12T02:17:55.298Z,23.64
2022-08-12T02:20:23.137Z,23.66
2022-08-12T02:22:54.944Z,23.65
2022-08-12T02:25:41.959Z,23.67
2022-08-12T02:28:13.717Z,23.69
2022-08-12T02:30:45.400Z,23.65
2022-08-12T02:33:18.283Z,23.57
2022-08-12T02:35:51.720Z,23.47
2022-08-12T02:38:23.420Z,23.42
2022-08-12T02:40:55.760Z,23.40
2022-08-12T02:43:43.163Z,23.36
2022-08-12T02:46:17.215Z,23.33
2022-08-12T02:48:54.669Z,23.29
2022-08-12T02:51:34.730Z,23.29
2022-08-12T02:54:07.514Z,23.29
2022-08-12T02:56:41.336Z,23.31
2022-08-12T02:59:16.750Z,23.32
2022-08-12T03:01:57.634Z,23.32
2022-08-12T03:04:34.452Z,23.31
2022-08-12T03:07:09.797Z,23.32
2022-08-12T03:10:05.360Z,23.36
2022-08-12T03:12:20.745Z,23.41
2022-08-12T03:14:56.141Z,23.48
2022-08-12T03:17:30.988Z,23.52
2022-08-12T03:20:09.626Z,23.56
2022-08-12T03:22:40.165Z,23.58
2022-08-12T03:25:16.218Z,23.61
2022-08-12T03:27:52.586Z,23.65
2022-08-12T03:30:27.093Z,23.70
2022-08-12T03:32:59.903Z,23.74
2022-08-12T03:35:41.500Z,23.79
2022-08-12T03:38:11.984Z,23.83
2022-08-12T03:41:22.760Z,23.87
2022-08-12T03:44:25.842Z,23.89
2022-08-12T03:47:36.720Z,23.90
2022-08-12T03:50:26.763Z,23.90
2022-08-12T03:53:16.606Z,23.90
2022-08-12T03:56:06.307Z,23.90
2022-08-12T03:58:56.912Z,23.91
2022-08-12T04:01:30.398Z,23.94
2022-08-12T04:04:04.085Z,24.00
2022-08-12T04:06:36.446Z,24.06
2022-08-12T04:09:14.703Z,24.10
2022-08-12T04:12:00.147Z,24.08
2022-08-12T04:14:33.093Z,24.06
2022-08-12T04:17:05.650Z,24.06
2022-08-12T04:19:38.310Z,24.07
2022-08-12T04:22:11.782Z,24.11
2022-08-12T04:24:50.729Z,24.11
2022-08-12T04:27:17.839Z,24.12
2022-08-12T04:30:30.176Z,24.07
2022-08-12T04:32:23.102Z,24.03
2022-08-12T04:34:55.719Z,24.00
2022-08-12T04:37:27.524Z,24.00
2022-08-12T04:39:59.480Z,24.01
2022-08-12T04:42:33.157Z,24.06
2022-08-12T04:45:06.782Z,24.12
2022-08-12T04:47:38.919Z,24.17
2022-08-12T04:50:35.324Z,24.22
2022-08-12T04:52:44.650Z,24.24
2022-08-12T04:55:17.327Z,24.25
2022-08-12T04:57:49.432Z,24.26
2022-08-12T05:00:23.232Z,24.28
2022-08-12T05:02:55.562Z,24.31
2022-08-12T05:05:27.431Z,24.36
2022-08-12T05:08:03.417Z,24.38
2022-08-12T05:10:37.380Z,24.45
2022-08-12T05:13:11.582Z,24.48
2022-08-12T05:16:04.666Z,24.52
2022-08-12T05:18:20.461Z,24.53
2022-08-12T05:20:52.536Z,24.54
2022-08-12T05:23:24.354Z,24.57
2022-08-12T05:25:57.369Z,24.55
2022-08-12T05:28:30.500Z,24.59
2022-08-12T05:31:02.411Z,24.60
2022-08-12T05:33:41.195Z,24.63
2022-08-12T05:36:15.090Z,24.67
2022-08-12T05:38:59.874Z,24.73
2022-08-12T05:41:35.345Z,24.81
2022-08-12T05:44:09.097Z,24.89
2022-08-12T05:46:41.425Z,24.97
2022-08-12T05:49:13.376Z,25.06
2022-08-12T05:51:45.113Z,25.17
2022-08-12T05:54:17.370Z,25.22
2022-08-12T05:56:49.095Z,25.28
2022-08-12T05:59:21.834Z,25.35
2022-08-12T06:02:11.807Z,25.43
2022-08-12T06:04:28.727Z,25.49
2022-08-12T06:07:02.012Z,25.57
2022-08-12T06:09:35.316Z,25.60
2022-08-12T06:12:07.154Z,25.62
2022-08-12T06:14:39.438Z,25.65
2022-08-12T06:17:12.019Z,25.66
2022-08-12T06:20:27.330Z,25.65
2022-08-12T06:22:17.544Z,25.64
2022-08-12T06:24:50.067Z,25.60
2022-08-12T06:27:21.950Z,25.56
2022-08-12T06:30:07.480Z,25.53
2022-08-12T06:32:28.549Z,25.49
2022-08-12T06:35:25.390Z,25.48
2022-08-12T06:37:41.900Z,25.47
2022-08-12T06:40:15.481Z,25.49
2022-08-12T06:42:51.780Z,25.49
2022-08-12T06:45:23.613Z,25.54
2022-08-12T06:47:58.477Z,25.61
2022-08-12T06:50:31.239Z,25.70
2022-08-12T06:53:05.901Z,25.81
2022-08-12T06:55:56.747Z,25.92
2022-08-12T06:58:14.966Z,26.05
2022-08-12T07:00:47.670Z,26.16
2022-08-12T07:03:23.114Z,26.28
2022-08-12T07:05:57.232Z,26.36
2022-08-12T07:08:34.353Z,26.46
2022-08-12T07:11:11.957Z,26.57
2022-08-12T07:14:11.872Z,26.69
2022-08-12T07:16:24.588Z,26.84
2022-08-12T07:18:57.550Z,26.98
2022-08-12T07:22:00.252Z,27.13
2022-08-12T07:24:05.766Z,27.23
2022-08-12T07:26:39.432Z,27.33
2022-08-12T07:29:14.553Z,27.38
2022-08-12T07:31:46.588Z,27.40
2022-08-12T07:34:18.538Z,27.41
2022-08-12T07:36:50.419Z,27.39
2022-08-12T07:39:22.401Z,27.36
2022-08-12T07:41:54.170Z,27.33
2022-08-12T07:44:26.285Z,27.32
2022-08-12T07:46:58.081Z,27.32
2022-08-12T07:49:29.830Z,27.35
2022-08-12T07:52:02.102Z,27.41
2022-08-12T07:54:34.220Z,27.46
2022-08-12T07:57:08.607Z,27.52
2022-08-12T07:59:40.545Z,27.57
2022-08-12T08:02:12.485Z,27.60
2022-08-12T08:05:00.777Z,27.61
2022-08-12T08:07:33.096Z,27.61
2022-08-12T08:10:07.461Z,27.62
2022-08-12T08:12:56.386Z,27.60
2022-08-12T08:16:00.583Z,27.60
2022-08-12T08:18:10.277Z,27.60
2022-08-12T08:20:44.913Z,27.58
2022-08-12T08:23:19.848Z,27.52
2022-08-12T08:25:53.404Z,27.48
2022-08-12T08:28:25.157Z,27.44
2022-08-12T08:30:56.918Z,27.42
2022-08-12T08:34:09.052Z,27.40
2022-08-12T08:36:02.972Z,27.43
2022-08-12T08:38:35.572Z,27.43
2022-08-12T08:42:17.225Z,27.44
2022-08-12T08:44:00.546Z,27.50
2022-08-12T08:46:34.428Z,27.58
2022-08-12T08:49:06.790Z,27.60
2022-08-12T08:51:39.768Z,27.62
2022-08-12T08:54:13.915Z,27.62
2022-08-12T08:56:47.350Z,27.60
2022-08-12T08:59:20.166Z,27.53
2022-08-12T09:01:51.987Z,27.49
2022-08-12T09:05:12.288Z,27.38
2022-08-12T09:07:17.359Z,27.26
2022-08-12T09:10:03.331Z,27.18
2022-08-12T09:12:30.082Z,27.10
2022-08-12T09:15:02.004Z,27.11
2022-08-12T09:17:42.159Z,27.07
2022-08-12T09:20:15.195Z,27.07
2022-08-12T09:25:25.197Z,26.95
2022-08-12T09:28:04.030Z,26.87
2022-08-12T09:30:41.913Z,26.78
2022-08-12T09:33:15.256Z,26.73
2022-08-12T09:35:42.795Z,26.66
2022-08-12T09:38:28.348Z,26.64
2022-08-12T09:41:02.551Z,26.65
2022-08-12T09:43:35.445Z,26.64
2022-08-12T09:46:21.680Z,26.61
2022-08-12T09:48:44.803Z,26.60
2022-08-12T09:51:22.193Z,26.61
2022-08-12T09:54:05.963Z,26.64
2022-08-12T09:57:00.036Z,26.67
2022-08-12T09:59:01.369Z,26.68
2022-08-12T10:01:35.020Z,26.71
2022-08-12T10:04:10.416Z,26.75
2022-08-12T10:06:54.834Z,26.78
2022-08-12T10:09:17.538Z,26.81
2022-08-12T10:12:10.576Z,26.85
2022-08-12T10:14:49.974Z,26.89
2022-08-12T10:17:17.363Z,26.87
2022-08-12T10:19:51.963Z,26.79
2022-08-12T10:22:39.755Z,26.63
2022-08-12T10:25:17.185Z,26.47
2022-08-12T10:28:13.800Z,26.35
2022-08-12T10:30:44.124Z,26.23
2022-08-12T10:33:18.226Z,26.08
2022-08-12T10:35:48.868Z,25.99
2022-08-12T10:38:37.089Z,25.91
2022-08-12T10:41:19.027Z,25.82
2022-08-12T10:43:55.479Z,25.68
2022-08-12T10:46:21.462Z,25.57
2022-08-12T10:48:58.441Z,25.48
2022-08-12T10:52:04.292Z,25.43
2022-08-12T10:54:02.738Z,25.37
2022-08-12T10:56:36.659Z,25.36
2022-08-12T10:59:12.382Z,25.33
2022-08-12T11:04:16.919Z,25.26
2022-08-12T11:04:35.838Z,25.20
2022-08-12T11:07:09.093Z,25.12
2022-08-12T11:09:55.688Z,24.99
2022-08-12T11:12:56.544Z,24.87
2022-08-12T11:14:49.862Z,24.78
2022-08-12T11:17:42.690Z,24.78
2022-08-12T11:19:49.932Z,24.79
2022-08-12T11:22:24.173Z,24.80
2022-08-12T11:24:55.559Z,24.84
2022-08-12T11:27:29.465Z,24.93
2022-08-12T11:30:05.904Z,25.02
2022-08-12T11:32:39.077Z,25.12
2022-08-12T11:35:11.762Z,25.18
2022-08-12T11:37:58.411Z,25.22
2022-08-12T11:42:51.356Z,25.28
2022-08-12T11:45:24.107Z,25.33
2022-08-12T11:47:58.691Z,25.34
2022-08-12T11:50:32.710Z,25.31
2022-08-12T11:53:06.275Z,25.25
2022-08-12T11:55:46.723Z,25.21
2022-08-12T11:59:35.970Z,25.19
2022-08-12T12:03:23.079Z,25.10
2022-08-12T12:05:54.622Z,25.05
2022-08-12T12:08:41.041Z,25.03
2022-08-12T12:11:09.437Z,25.02
2022-08-12T12:14:08.482Z,25.00
2022-08-12T12:16:14.586Z,24.99
2022-08-12T12:18:46.678Z,24.99
2022-08-12T12:21:30.028Z,25.00
2022-08-12T12:23:53.611Z,25.02
2022-08-12T12:26:35.465Z,25.01
2022-08-12T12:29:03.414Z,25.03
2022-08-12T12:32:09.218Z,25.07
2022-08-12T12:34:30.745Z,25.09
2022-08-12T12:36:54.850Z,25.13
2022-08-12T12:39:22.834Z,25.16
2022-08-12T12:42:55.550Z,25.17
2022-08-12T12:44:38.840Z,25.17
2022-08-12T12:47:02.597Z,25.17
2022-08-12T12:49:35.173Z,25.17
2022-08-12T12:52:19.803Z,25.11
2022-08-12T12:54:44.076Z,25.09
2022-08-12T12:57:17.589Z,25.07
2022-08-12T12:59:56.134Z,25.06
2022-08-12T13:02:31.392Z,25.06
2022-08-12T13:05:00.668Z,25.05
2022-08-12T13:07:49.546Z,25.00
2022-08-12T13:10:10.987Z,24.99
2022-08-12T13:12:45.256Z,24.96
2022-08-12T13:15:45.360Z,24.93
2022-08-12T13:18:03.273Z,24.91
2022-08-12T13:20:37.446Z,24.89
2022-08-12T13:23:07.122Z,24.89
2022-08-12T13:25:36.977Z,24.88
2022-08-12T13:28:13.473Z,24.90
2022-08-12T13:30:48.385Z,24.89
2022-08-12T13:33:20.705Z,24.92
2022-08-12T13:36:05.133Z,24.95
2022-08-12T13:38:52.174Z,24.96
2022-08-12T13:41:33.721Z,24.99
2022-08-12T13:44:10.576Z,25.03
2022-08-12T13:49:17.514Z,25.03
2022-08-12T13:51:48.788Z,25.04
2022-08-12T13:54:20.714Z,25.05
2022-08-12T13:56:53.715Z,25.09
2022-08-12T13:59:26.619Z,25.12
2022-08-12T14:01:58.644Z,25.13
2022-08-12T14:04:30.314Z,25.16
2022-08-12T14:07:03.855Z,25.19
2022-08-12T14:09:37.424Z,25.19
2022-08-12T14:12:16.220Z,25.19
2022-08-12T14:14:46.484Z,25.17
2022-08-12T14:17:19.909Z,25.16
2022-08-12T14:20:10.599Z,25.14
2022-08-12T14:22:49.552Z,25.14
2022-08-12T14:25:16.865Z,25.13
2022-08-12T14:28:04.588Z,25.13
2022-08-12T14:30:28.776Z,25.14
2022-08-12T14:32:57.847Z,25.15
2022-08-12T14:35:34.035Z,25.18
2022-08-12T14:38:16.682Z,25.19
2022-08-12T14:40:52.734Z,25.20
2022-08-12T14:43:31.405Z,25.19
2022-08-12T14:46:08.449Z,25.16
2022-08-12T14:48:44.710Z,25.13
2022-08-12T14:52:43.303Z,25.12
2022-08-12T14:59:20.420Z,24.77
2022-08-12T15:01:54.552Z,24.51
2022-08-12T15:04:27.053Z,24.25
2022-08-12T15:07:00.253Z,24.05
2022-08-12T15:09:32.799Z,23.90
2022-08-12T15:12:05.723Z,23.81
2022-08-12T15:14:41.767Z,23.74
2022-08-12T15:17:37.402Z,23.73
2022-08-12T15:20:27.913Z,23.74
2022-08-12T15:22:38.059Z,23.74
2022-08-12T15:24:55.714Z,23.75
2022-08-12T15:28:04.500Z,23.78
2022-08-12T15:30:01.181Z,23.78
2022-08-12T15:32:33.244Z,23.79
2022-08-12T15:35:11.907Z,23.77
2022-08-12T15:38:09.322Z,23.77
2022-08-12T15:40:13.380Z,23.76
2022-08-12T15:42:50.826Z,23.74
2022-08-12T15:45:23.469Z,23.74
2022-08-12T15:48:16.105Z,23.73
2022-08-12T15:50:28.413Z,23.75
2022-08-12T15:53:07.558Z,23.77
2022-08-12T15:55:35.434Z,23.80
2022-08-12T15:58:07.161Z,23.86
2022-08-12T16:00:41.245Z,23.92
2022-08-12T16:03:13.470Z,23.98
2022-08-12T16:06:15.429Z,24.04
2022-08-12T16:08:27.630Z,24.10
2022-08-12T16:10:56.459Z,24.12
2022-08-12T16:13:34.751Z,24.10
2022-08-12T16:16:03.862Z,24.09
2022-08-12T16:18:37.611Z,24.07
2022-08-12T16:21:52.421Z,24.03
2022-08-12T16:23:57.813Z,24.02
2022-08-12T16:26:32.211Z,24.00
2022-08-12T16:28:58.542Z,23.96
2022-08-12T16:31:33.005Z,23.91
2022-08-12T16:34:05.320Z,23.88
2022-08-12T16:36:40.462Z,23.86
2022-08-12T16:39:14.101Z,23.84
2022-08-12T16:41:48.228Z,23.87
2022-08-12T16:44:20.158Z,23.88
2022-08-12T16:46:58.005Z,23.92
2022-08-12T16:49:27.104Z,23.96
2022-08-12T16:52:00.664Z,23.96
2022-08-12T16:54:36.142Z,23.95
2022-08-12T16:57:08.959Z,23.94
2022-08-12T16:59:54.468Z,23.93
2022-08-12T17:02:31.132Z,23.93
2022-08-12T17:04:52.832Z,23.91
2022-08-12T17:07:22.724Z,23.91
2022-08-12T17:09:54.626Z,23.88
2022-08-12T17:12:28.215Z,23.87
2022-08-12T17:15:00.830Z,23.81
2022-08-12T17:17:48.027Z,23.77
2022-08-12T17:20:34.799Z,23.71
2022-08-12T17:22:43.914Z,23.66
2022-08-12T17:25:16.930Z,23.61
2022-08-12T17:27:57.005Z,23.55
2022-08-12T17:30:24.606Z,23.48
2022-08-12T17:32:58.970Z,23.43
2022-08-12T17:35:36.733Z,23.39
2022-08-12T17:38:14.156Z,23.33
2022-08-12T17:40:47.721Z,23.28
2022-08-12T17:43:52.172Z,23.21
2022-08-12T17:45:55.730Z,23.15
2022-08-12T17:48:34.296Z,23.10
2022-08-12T17:51:09.826Z,23.07
2022-08-12T17:54:11.646Z,23.04
2022-08-12T17:56:19.676Z,23.01
2022-08-12T17:58:58.448Z,23.00
2022-08-12T18:01:28.930Z,23.00
2022-08-12T18:04:20.807Z,22.97
2022-08-12T18:06:35.033Z,22.97
2022-08-12T18:09:08.795Z,22.97
2022-08-12T18:12:05.476Z,22.97
2022-08-12T18:14:32.717Z,22.97
2022-08-12T18:17:08.814Z,22.96
2022-08-12T18:20:04.927Z,22.94
2022-08-12T18:22:14.937Z,22.92
2022-08-12T18:24:47.625Z,22.91
2022-08-12T18:27:30.280Z,22.89
2022-08-12T18:29:55.602Z,22.87
2022-08-12T18:32:35.233Z,22.83
2022-08-12T18:35:10.191Z,22.82
2022-08-12T18:37:42.219Z,22.80
2022-08-12T18:40:28.455Z,22.80
2022-08-12T18:43:00.840Z,22.82
2022-08-12T18:45:46.849Z,22.86
2022-08-12T18:48:07.775Z,22.86
2022-08-12T18:50:48.868Z,22.84
2022-08-12T18:53:30.952Z,22.81
2022-08-12T18:55:59.593Z,22.79
2022-08-12T18:58:20.549Z,22.78
2022-08-12T19:00:52.548Z,22.75
2022-08-12T19:03:39.454Z,22.73
2022-08-12T19:06:01.055Z,22.71
2022-08-12T19:08:36.877Z,22.71
2022-08-12T19:11:27.971Z,22.74
2022-08-12T19:14:18.902Z,22.74
2022-08-12T19:16:52.708Z,22.78
2022-08-12T19:19:24.605Z,22.79
2022-08-12T19:21:58.152Z,22.78
2022-08-12T19:24:47.840Z,22.75
2022-08-12T19:27:20.609Z,22.73
2022-08-12T19:30:07.198Z,22.72
2022-08-12T19:32:27.341Z,22.68
2022-08-12T19:37:38.544Z,22.61
2022-08-12T19:40:20.528Z,22.56
2022-08-12T19:42:53.131Z,22.54
2022-08-12T19:45:19.929Z,22.52
2022-08-12T19:47:55.074Z,22.53
2022-08-12T19:50:28.509Z,22.51
2022-08-12T19:53:02.029Z,22.53
2022-08-12T19:55:38.967Z,22.54
2022-08-12T19:58:18.115Z,22.57
2022-08-12T20:00:53.130Z,22.60
2022-08-12T20:03:40.244Z,22.61
2022-08-12T20:06:06.996Z,22.63
2022-08-12T20:08:34.488Z,22.64
2022-08-12T20:12:09.181Z,22.67
2022-08-12T20:13:38.669Z,22.65
2022-08-12T20:16:45.505Z,22.64
2022-08-12T20:18:57.093Z,22.61
2022-08-12T20:21:24.122Z,22.58
2022-08-12T20:24:00.966Z,22.54
2022-08-12T20:26:27.757Z,22.53
2022-08-12T20:28:59.538Z,22.53
2022-08-12T20:31:32.332Z,22.53
2022-08-12T20:34:05.058Z,22.51
2022-08-12T20:36:44.210Z,22.51
2022-08-12T20:39:37.394Z,22.48
2022-08-12T20:41:50.966Z,22.47
2022-08-12T20:44:22.790Z,22.47
2022-08-12T20:46:59.264Z,22.45
2022-08-12T20:49:33.580Z,22.46
2022-08-12T20:52:05.645Z,22.49
2022-08-12T20:54:37.918Z,22.52
2022-08-12T20:57:10.325Z,22.53
2022-08-12T20:59:48.219Z,22.57
2022-08-12T21:02:16.165Z,22.57
2022-08-12T21:05:16.430Z,22.56
2022-08-12T21:07:40.843Z,22.54
2022-08-12T21:10:14.180Z,22.51
2022-08-12T21:12:47.463Z,22.48
2022-08-12T21:15:30.818Z,22.47
2022-08-12T21:18:11.798Z,22.48
2022-08-12T21:20:37.998Z,22.48
2022-08-12T21:23:09.820Z,22.47
2022-08-12T21:25:45.585Z,22.45
2022-08-12T21:28:15.696Z,22.40
2022-08-12T21:31:11.007Z,22.37
2022-08-12T21:33:20.974Z,22.33
2022-08-12T21:35:52.693Z,22.31
2022-08-12T21:38:26.003Z,22.29
2022-08-12T21:40:59.516Z,22.25
2022-08-12T21:43:44.943Z,22.22
2022-08-12T21:46:06.754Z,22.20
2022-08-12T21:48:40.252Z,22.17
2022-08-12T21:51:23.344Z,22.14
2022-08-12T21:54:07.801Z,22.12
2022-08-12T21:56:34.619Z,22.09
2022-08-12T21:58:55.481Z,22.08
2022-08-12T22:01:27.579Z,22.08
2022-08-12T22:04:18.578Z,22.06
2022-08-12T22:06:52.040Z,22.04
2022-08-12T22:09:26.648Z,22.02
2022-08-12T22:12:21.115Z,22.01
2022-08-12T22:14:53.917Z,21.98
2022-08-12T22:17:27.276Z,21.94
2022-08-12T22:19:59.895Z,21.90
2022-08-12T22:22:34.217Z,21.86
2022-08-12T22:25:06.834Z,21.79
2022-08-12T22:28:00.297Z,21.74
2022-08-12T22:30:53.229Z,21.67
2022-08-12T22:33:24.951Z,21.61
2022-08-12T22:35:59.457Z,21.57
2022-08-12T22:38:33.531Z,21.50
2022-08-12T22:41:07.901Z,21.47
2022-08-12T22:44:01.587Z,21.42
2022-08-12T22:46:52.696Z,21.39
2022-08-12T22:49:37.194Z,21.37
2022-08-12T22:52:06.471Z,21.36
2022-08-12T22:54:38.596Z,21.33
2022-08-12T22:57:12.783Z,21.30
2022-08-12T22:59:55.495Z,21.30
2022-08-12T23:02:28.545Z,21.27
2022-08-12T23:04:53.048Z,21.26
2022-08-12T23:07:26.784Z,21.25
2022-08-12T23:10:01.458Z,21.27
2022-08-12T23:12:51.459Z,21.26
2022-08-12T23:15:24.742Z,21.25
2022-08-12T23:17:57.858Z,21.21
2022-08-12T23:20:29.560Z,21.20
2022-08-12T23:23:05.811Z,21.18
2022-08-12T23:25:54.421Z,21.19
2022-08-12T23:28:29.383Z,21.21
2022-08-12T23:31:04.662Z,21.24
2022-08-12T23:34:01.819Z,21.27
2022-08-12T23:36:12.709Z,21.27
2022-08-12T23:38:43.852Z,21.30
2022-08-12T23:41:26.112Z,21.33
2022-08-12T23:44:01.404Z,21.37
2022-08-12T23:46:33.659Z,21.37
2022-08-12T23:49:26.836Z,21.33
2022-08-12T23:51:39.970Z,21.32
2022-08-12T23:54:17.896Z,21.31
2022-08-12T23:56:45.497Z,21.30
2022-08-12T23:59:18.924Z,21.30
